Time;durP1;ratioP1;P1;durP2;ratioP2;P2;SDS_P1;SDS_P2;PMS_P1;PMS_P2;Temp;Humidity;BMP_temperature;BMP_pressure;BME280_temperature;BME280_humidity;BME280_pressure;Samples;Min_cycle;Max_cycle;Signal;HPM_P1;HPM_P2
2022/10/22 00:01:32;;;;;;;4.50;1.75;;;;;;;;;;5090256;28;20085;-82
2022/10/22 00:03:57;;;;;;;9.93;2.22;;;;;;;;;;5090786;28;20039;-85
2022/10/22 00:06:23;;;;;;;2.85;2.22;;;;;;;;;;5090437;28;20024;-85
2022/10/22 00:08:48;;;;;;;1.90;1.67;;;;;;;;;;5094483;28;20468;-84
2022/10/22 00:11:16;;;;;;;5.95;2.15;;;;;;;;;;5090644;28;20483;-83
2022/10/22 00:13:42;;;;;;;2.90;2.08;;;;;;;;;;5091929;28;20042;-83
2022/10/22 00:16:08;;;;;;;2.97;1.88;;;;;;;;;;5087851;28;20099;-84
2022/10/22 00:18:33;;;;;;;4.70;2.42;;;;;;;;;;5091914;28;20032;-87
2022/10/22 00:20:59;;;;;;;3.67;2.78;;;;;;;;;;5090499;28;20479;-85
2022/10/22 00:23:24;;;;;;;2.35;1.45;;;;;;;;;;5091385;28;20073;-86
2022/10/22 00:25:52;;;;;;;2.58;2.35;;;;;;;;;;5090971;28;20481;-86
2022/10/22 00:28:17;;;;;;;1.85;1.70;;;;;;;;;;5090541;28;20072;-84
2022/10/22 00:30:43;;;;;;;3.30;2.15;;;;;;;;;;5091641;28;20019;-84
2022/10/22 00:33:08;;;;;;;2.97;2.25;;;;;;;;;;5091734;28;20047;-84
2022/10/22 00:35:33;;;;;;;2.75;1.98;;;;;;;;;;5090164;28;20036;-84
2022/10/22 00:37:59;;;;;;;4.72;3.25;;;;;;;;;;5090904;28;20027;-84
2022/10/22 00:40:24;;;;;;;2.13;1.83;;;;;;;;;;5091431;28;20036;-84
2022/10/22 00:42:50;;;;;;;2.65;1.85;;;;;;;;;;5090187;28;20115;-83
2022/10/22 00:45:33;;;;;;;4.07;2.63;;;;;;;;;;5089618;28;20059;-83
2022/10/22 00:48:03;;;;;;;5.28;2.38;;;;;;;;;;5089043;28;20024;-83
2022/10/22 00:50:46;;;;;;;2.90;1.42;;;;;;;;;;5089170;28;20020;-83
2022/10/22 00:53:15;;;;;;;5.13;2.05;;;;;;;;;;5089282;28;20403;-85
2022/10/22 00:55:44;;;;;;;3.10;1.97;;;;;;;;;;5091289;28;20035;-85
2022/10/22 00:58:09;;;;;;;2.47;2.08;;;;;;;;;;5089432;28;20028;-88
2022/10/22 01:00:35;;;;;;;4.53;2.75;;;;;;;;;;5091453;28;20090;-85
2022/10/22 01:03:00;;;;;;;0.98;0.98;;;;;;;;;;5090380;28;20459;-86
2022/10/22 01:05:33;;;;;;;3.13;1.85;;;;;;;;;;5095672;28;20093;-86
2022/10/22 01:07:58;;;;;;;2.25;1.80;;;;;;;;;;5093176;28;20024;-85
2022/10/22 01:10:27;;;;;;;3.80;2.35;;;;;;;;;;5094386;28;20105;-85
2022/10/22 01:13:29;;;;;;;5.80;2.83;;;;;;;;;;5091956;28;20085;-85
2022/10/22 01:16:26;;;;;;;4.80;2.80;;;;;;;;;;5092728;28;20085;-85
2022/10/22 01:19:13;;;;;;;4.15;2.80;;;;;;;;;;5096030;28;20032;-85
2022/10/22 01:21:44;;;;;;;2.72;1.58;;;;;;;;;;5094574;28;20506;-84
2022/10/22 01:24:30;;;;;;;4.40;2.95;;;;;;;;;;5093905;28;20024;-85
2022/10/22 01:27:30;;;;;;;5.50;3.38;;;;;;;;;;5093453;28;20118;-85
2022/10/22 01:30:05;;;;;;;10.23;3.15;;;;;;;;;;5091262;28;20016;-85
2022/10/22 01:32:38;;;;;;;3.00;1.88;;;;;;;;;;5092329;28;20040;-85
2022/10/22 01:35:07;;;;;;;3.97;2.20;;;;;;;;;;5093489;28;20024;-84
2022/10/22 01:37:37;;;;;;;3.70;2.75;;;;;;;;;;5092029;28;20460;-84
2022/10/22 01:40:04;;;;;;;;;;;;;;;;;;5093386;28;20115;-84
2022/10/22 01:42:29;;;;;;;4.63;1.98;;;;;;;;;;5093331;28;20380;-85
2022/10/22 01:44:55;;;;;;;4.10;3.08;;;;;;;;;;5093006;28;20115;-85
2022/10/22 01:47:31;;;;;;;4.72;2.45;;;;;;;;;;5094642;28;20115;-85
2022/10/22 01:50:27;;;;;;;3.97;2.63;;;;;;;;;;5093813;28;20491;-86
2022/10/22 01:53:10;;;;;;;3.08;2.30;;;;;;;;;;5085115;28;20470;-86
2022/10/22 01:56:16;;;;;;;4.35;2.28;;;;;;;;;;5090843;28;20056;-84
2022/10/22 01:58:54;;;;;;;3.47;2.50;;;;;;;;;;5094017;28;20032;-86
2022/10/22 02:01:29;;;;;;;2.38;1.88;;;;;;;;;;5094009;28;20024;-86
2022/10/22 02:04:02;;;;;;;4.82;1.80;;;;;;;;;;5093001;28;20024;-85
2022/10/22 02:06:31;;;;;;;3.72;2.38;;;;;;;;;;5091662;28;20146;-86
2022/10/22 02:08:57;;;;;;;3.15;2.72;;;;;;;;;;5092385;28;20039;-86
2022/10/22 02:11:22;;;;;;;5.43;2.63;;;;;;;;;;5094075;28;20024;-85
2022/10/22 02:13:52;;;;;;;4.80;2.10;;;;;;;;;;5092235;28;20490;-86
2022/10/22 02:16:23;;;;;;;2.58;1.92;;;;;;;;;;5093461;28;20024;-85
2022/10/22 02:18:52;;;;;;;2.17;1.55;;;;;;;;;;5092860;28;20028;-84
2022/10/22 02:21:18;;;;;;;2.33;2.03;;;;;;;;;;5091207;28;20048;-84
2022/10/22 02:23:45;;;;;;;4.32;3.13;;;;;;;;;;5093720;28;20050;-84
2022/10/22 02:26:19;;;;;;;3.22;2.83;;;;;;;;;;5093907;28;20024;-85
2022/10/22 02:29:02;;;;;;;1.52;0.98;;;;;;;;;;5093048;28;20514;-86
2022/10/22 02:31:31;;;;;;;2.63;1.98;;;;;;;;;;5090895;28;20028;-86
2022/10/22 02:34:00;;;;;;;3.78;1.92;;;;;;;;;;5092979;28;20026;-86
2022/10/22 02:36:26;;;;;;;6.50;2.22;;;;;;;;;;5093094;28;20111;-86
2022/10/22 02:38:52;;;;;;;4.18;2.25;;;;;;;;;;5094027;28;20120;-86
2022/10/22 02:41:19;;;;;;;3.42;1.58;;;;;;;;;;5093743;28;20023;-87
2022/10/22 02:43:52;;;;;;;2.65;1.92;;;;;;;;;;5094056;28;20107;-86
2022/10/22 02:46:17;;;;;;;2.70;2.05;;;;;;;;;;5086678;28;20027;-86
2022/10/22 02:48:42;;;;;;;4.25;2.50;;;;;;;;;;5091793;28;20391;-86
2022/10/22 02:51:08;;;;;;;5.28;2.70;;;;;;;;;;5088950;28;20047;-86
2022/10/22 02:53:33;;;;;;;5.25;2.85;;;;;;;;;;5091779;28;20030;-86
2022/10/22 02:55:59;;;;;;;1.33;1.23;;;;;;;;;;5092231;28;20073;-87
2022/10/22 02:58:24;;;;;;;3.05;2.05;;;;;;;;;;5093488;28;20028;-86
2022/10/22 03:00:50;;;;;;;1.75;1.05;;;;;;;;;;5091980;28;20456;-86
2022/10/22 03:03:15;;;;;;;2.05;1.77;;;;;;;;;;5092229;28;20368;-86
2022/10/22 03:05:40;;;;;;;2.08;1.85;;;;;;;;;;5092796;28;20046;-86
2022/10/22 03:08:06;;;;;;;3.92;2.42;;;;;;;;;;5093145;28;20020;-86
2022/10/22 03:10:31;;;;;;;3.00;1.45;;;;;;;;;;5092193;28;20035;-87
2022/10/22 03:12:57;;;;;;;2.42;1.35;;;;;;;;;;5092844;28;20055;-86
2022/10/22 03:15:22;;;;;;;3.08;2.22;;;;;;;;;;5093231;28;20024;-85
2022/10/22 03:17:48;;;;;;;3.95;2.13;;;;;;;;;;5093519;28;20035;-86
2022/10/22 03:20:13;;;;;;;5.00;2.22;;;;;;;;;;5090118;28;20057;-86
2022/10/22 03:22:41;;;;;;;2.47;2.10;;;;;;;;;;5091218;28;20051;-85
2022/10/22 03:25:11;;;;;;;2.67;1.67;;;;;;;;;;5092001;28;20118;-86
2022/10/22 03:27:38;;;;;;;2.90;2.20;;;;;;;;;;5093055;28;20445;-86
2022/10/22 03:30:04;;;;;;;1.10;1.00;;;;;;;;;;5091198;28;20034;-85
2022/10/22 03:32:30;;;;;;;2.28;2.05;;;;;;;;;;5092840;28;20498;-86
2022/10/22 03:34:55;;;;;;;3.58;2.42;;;;;;;;;;5092649;28;20044;-85
2022/10/22 03:37:22;;;;;;;2.75;1.45;;;;;;;;;;5092502;28;20035;-84
2022/10/22 03:39:47;;;;;;;1.13;1.02;;;;;;;;;;5093004;28;20020;-86
2022/10/22 03:42:13;;;;;;;3.15;1.98;;;;;;;;;;5092731;28;20551;-85
2022/10/22 03:44:39;;;;;;;3.72;2.22;;;;;;;;;;5091140;28;20510;-85
2022/10/22 03:47:05;;;;;;;2.50;1.30;;;;;;;;;;5092005;28;20549;-85
2022/10/22 03:49:31;;;;;;;1.83;1.42;;;;;;;;;;5092391;28;20020;-83
2022/10/22 03:51:56;;;;;;;2.40;1.77;;;;;;;;;;5092640;28;20028;-85
2022/10/22 03:54:22;;;;;;;2.30;1.70;;;;;;;;;;5091130;28;20028;-86
2022/10/22 03:56:47;;;;;;;5.80;2.10;;;;;;;;;;5092339;28;20031;-84
2022/10/22 03:59:13;;;;;;;6.68;1.65;;;;;;;;;;5092207;28;20032;-85
2022/10/22 04:01:39;;;;;;;2.20;1.52;;;;;;;;;;5092116;28;20230;-85
2022/10/22 04:04:04;;;;;;;2.95;2.38;;;;;;;;;;5091745;28;20515;-84
2022/10/22 04:06:30;;;;;;;4.63;2.65;;;;;;;;;;5089527;28;20028;-87
2022/10/22 04:08:55;;;;;;;2.88;2.25;;;;;;;;;;5094478;28;20050;-85
2022/10/22 04:11:21;;;;;;;2.45;1.80;;;;;;;;;;5090051;28;20048;-84
2022/10/22 04:13:46;;;;;;;3.55;2.22;;;;;;;;;;5088421;28;20426;-84
2022/10/22 04:16:16;;;;;;;8.30;4.38;;;;;;;;;;5092071;28;20028;-85
2022/10/22 04:18:42;;;;;;;2.53;2.33;;;;;;;;;;5091976;28;20043;-85
2022/10/22 04:21:09;;;;;;;4.82;2.58;;;;;;;;;;5090609;28;20044;-84
2022/10/22 04:23:35;;;;;;;2.85;1.73;;;;;;;;;;5090654;28;20036;-85
2022/10/22 04:26:06;;;;;;;2.78;1.92;;;;;;;;;;5090623;28;20024;-87
2022/10/22 04:28:32;;;;;;;24.48;8.75;;;;;;;;;;5090965;28;20030;-85
2022/10/22 04:30:58;;;;;;;3.28;2.10;;;;;;;;;;5091905;28;20856;-85
2022/10/22 04:33:23;;;;;;;6.03;2.67;;;;;;;;;;5091142;28;20102;-86
2022/10/22 04:35:48;;;;;;;4.10;2.72;;;;;;;;;;5090743;28;20040;-85
2022/10/22 04:38:14;;;;;;;7.60;4.35;;;;;;;;;;5090092;28;20028;-86
2022/10/22 04:40:40;;;;;;;3.55;2.50;;;;;;;;;;5089893;28;20115;-84
2022/10/22 04:43:06;;;;;;;3.03;2.72;;;;;;;;;;5091621;28;20024;-84
2022/10/22 04:45:33;;;;;;;3.10;2.30;;;;;;;;;;5091374;28;20383;-85
2022/10/22 04:47:58;;;;;;;3.33;2.47;;;;;;;;;;5089663;28;20102;-85
2022/10/22 04:50:23;;;;;;;3.88;3.28;;;;;;;;;;5085084;28;20440;-83
2022/10/22 04:52:49;;;;;;;5.03;2.38;;;;;;;;;;5090869;28;20032;-82
2022/10/22 04:55:14;;;;;;;4.28;2.20;;;;;;;;;;5090207;28;20020;-84
2022/10/22 04:57:40;;;;;;;5.35;2.60;;;;;;;;;;5088242;28;20051;-84
2022/10/22 05:00:06;;;;;;;3.97;2.42;;;;;;;;;;5089804;28;20114;-83
2022/10/22 05:02:31;;;;;;;15.50;4.50;;;;;;;;;;5090425;28;20024;-84
2022/10/22 05:04:57;;;;;;;6.25;3.83;;;;;;;;;;5091241;28;20151;-85
2022/10/22 05:07:22;;;;;;;3.30;2.35;;;;;;;;;;5090232;28;20020;-85
2022/10/22 05:09:48;;;;;;;6.10;3.65;;;;;;;;;;5089943;28;20470;-84
2022/10/22 05:12:13;;;;;;;4.40;2.72;;;;;;;;;;5087247;28;20495;-86
2022/10/22 05:14:39;;;;;;;4.70;2.75;;;;;;;;;;5089232;28;20036;-86
2022/10/22 05:17:04;;;;;;;3.30;3.00;;;;;;;;;;5090611;28;20091;-89
2022/10/22 05:19:30;;;;;;;5.25;3.22;;;;;;;;;;5090263;28;20039;-83
2022/10/22 05:21:59;;;;;;;4.65;3.30;;;;;;;;;;5091271;28;20050;-84
2022/10/22 05:24:25;;;;;;;6.85;3.88;;;;;;;;;;5091336;28;20054;-84
2022/10/22 05:26:53;;;;;;;8.05;3.85;;;;;;;;;;5089447;28;20024;-84
2022/10/22 05:29:18;;;;;;;7.32;3.95;;;;;;;;;;5089052;28;20035;-85
2022/10/22 05:31:44;;;;;;;15.30;9.65;;;;;;;;;;5089600;28;20024;-84
2022/10/22 05:34:10;;;;;;;10.75;8.18;;;;;;;;;;5088512;28;20379;-85
2022/10/22 05:36:35;;;;;;;6.03;4.22;;;;;;;;;;5089543;28;20039;-83
2022/10/22 05:39:01;;;;;;;10.27;6.20;;;;;;;;;;5091122;28;20074;-85
2022/10/22 05:41:27;;;;;;;13.52;6.10;;;;;;;;;;5090458;28;20043;-84
2022/10/22 05:43:57;;;;;;;9.50;5.50;;;;;;;;;;5090992;28;20028;-85
2022/10/22 05:46:24;;;;;;;5.30;3.63;;;;;;;;;;5093257;28;20035;-85
2022/10/22 05:48:58;;;;;;;5.95;3.97;;;;;;;;;;5094044;28;20034;-84
2022/10/22 05:51:29;;;;;;;8.15;3.65;;;;;;;;;;5092963;28;20044;-84
2022/10/22 05:53:57;;;;;;;7.53;4.28;;;;;;;;;;5094688;28;20020;-83
2022/10/22 05:56:23;;;;;;;6.82;4.45;;;;;;;;;;5092737;28;20096;-85
2022/10/22 05:58:49;;;;;;;7.28;4.60;;;;;;;;;;5092213;28;20019;-86
2022/10/22 06:01:20;;;;;;;6.50;4.95;;;;;;;;;;5094080;28;20055;-85
2022/10/22 06:03:47;;;;;;;6.15;4.30;;;;;;;;;;5093525;28;20085;-83
2022/10/22 06:06:18;;;;;;;7.78;4.63;;;;;;;;;;5094353;28;20028;-84
2022/10/22 06:08:46;;;;;;;9.77;5.75;;;;;;;;;;5094863;28;20035;-84
2022/10/22 06:11:11;;;;;;;4.72;3.28;;;;;;;;;;5092438;28;20028;-85
2022/10/22 06:13:37;;;;;;;14.65;4.90;;;;;;;;;;5092487;28;20115;-84
2022/10/22 06:16:03;;;;;;;6.40;5.15;;;;;;;;;;5095123;28;20022;-84
2022/10/22 06:18:28;;;;;;;6.40;4.68;;;;;;;;;;5095091;28;20107;-84
2022/10/22 06:20:53;;;;;;;10.40;6.45;;;;;;;;;;5092172;28;20380;-84
2022/10/22 06:23:19;;;;;;;6.03;2.90;;;;;;;;;;5094624;28;20023;-84
2022/10/22 06:25:55;;;;;;;6.85;4.63;;;;;;;;;;5093504;28;20379;-84
2022/10/22 06:28:20;;;;;;;6.65;4.28;;;;;;;;;;5095225;28;20528;-84
2022/10/22 06:30:46;;;;;;;11.07;3.90;;;;;;;;;;5095517;28;20023;-85
2022/10/22 06:33:11;;;;;;;8.52;4.03;;;;;;;;;;5095342;28;20458;-82
2022/10/22 06:35:37;;;;;;;3.95;3.05;;;;;;;;;;5094031;28;20032;-82
2022/10/22 06:38:02;;;;;;;7.65;5.28;;;;;;;;;;5093388;28;20380;-82
2022/10/22 06:40:27;;;;;;;9.75;5.47;;;;;;;;;;5090504;28;20027;-83
2022/10/22 06:42:53;;;;;;;9.50;6.20;;;;;;;;;;5093147;28;20024;-83
2022/10/22 06:45:18;;;;;;;9.90;5.07;;;;;;;;;;5090830;28;20024;-82
2022/10/22 06:47:44;;;;;;;6.80;3.47;;;;;;;;;;5096461;28;20024;-82
2022/10/22 06:50:09;;;;;;;5.90;4.50;;;;;;;;;;5091820;28;20030;-82
2022/10/22 06:52:34;;;;;;;13.23;5.60;;;;;;;;;;5091073;28;20487;-82
2022/10/22 06:55:00;;;;;;;7.18;3.97;;;;;;;;;;5090252;28;20073;-82
2022/10/22 06:57:25;;;;;;;5.60;4.25;;;;;;;;;;5093318;28;20467;-82
2022/10/22 06:59:51;;;;;;;7.72;4.25;;;;;;;;;;5092731;28;20044;-82
2022/10/22 07:02:16;;;;;;;10.73;6.32;;;;;;;;;;5089310;28;20095;-82
2022/10/22 07:04:41;;;;;;;10.95;4.88;;;;;;;;;;5089760;28;20016;-81
2022/10/22 07:07:07;;;;;;;4.55;3.42;;;;;;;;;;5092520;28;20533;-83
2022/10/22 07:09:32;;;;;;;7.80;4.57;;;;;;;;;;5090692;28;20537;-83
2022/10/22 07:11:58;;;;;;;6.63;5.35;;;;;;;;;;5093296;28;20081;-83
2022/10/22 07:14:23;;;;;;;7.20;5.45;;;;;;;;;;5088535;28;20032;-83
2022/10/22 07:16:48;;;;;;;6.00;3.67;;;;;;;;;;5092839;28;20072;-83
2022/10/22 07:19:14;;;;;;;10.82;6.65;;;;;;;;;;5087954;28;20378;-83
2022/10/22 07:21:39;;;;;;;5.35;4.43;;;;;;;;;;5087751;28;20048;-83
2022/10/22 07:24:05;;;;;;;7.10;4.35;;;;;;;;;;5089028;28;20114;-83
2022/10/22 07:26:31;;;;;;;7.55;5.25;;;;;;;;;;5093171;28;20107;-84
2022/10/22 07:29:00;;;;;;;9.43;5.30;;;;;;;;;;5088647;28;20024;-83
2022/10/22 07:31:26;;;;;;;9.63;5.68;;;;;;;;;;5085267;28;20536;-83
2022/10/22 07:33:51;;;;;;;7.78;4.10;;;;;;;;;;5089833;28;20110;-83
2022/10/22 07:36:17;;;;;;;6.15;3.70;;;;;;;;;;5089773;28;20219;-84
2022/10/22 07:38:46;;;;;;;7.18;3.58;;;;;;;;;;5092338;28;20376;-83
2022/10/22 07:41:14;;;;;;;9.32;4.35;;;;;;;;;;5089140;28;20108;-82
2022/10/22 07:43:40;;;;;;;5.25;4.25;;;;;;;;;;5090854;28;20388;-83
2022/10/22 07:46:07;;;;;;;9.18;6.43;;;;;;;;;;5092292;28;20027;-83
2022/10/22 07:48:33;;;;;;;9.45;5.03;;;;;;;;;;5093491;28;20430;-83
2022/10/22 07:50:59;;;;;;;5.25;3.38;;;;;;;;;;5093199;28;20376;-82
2022/10/22 07:53:24;;;;;;;5.50;3.58;;;;;;;;;;5091618;28;20034;-82
2022/10/22 07:55:50;;;;;;;5.93;4.07;;;;;;;;;;5087533;28;20535;-83
2022/10/22 07:58:17;;;;;;;8.35;4.85;;;;;;;;;;5088503;28;20063;-83
2022/10/22 08:00:43;;;;;;;5.72;3.38;;;;;;;;;;5087136;28;20054;-83
2022/10/22 08:03:13;;;;;;;4.53;3.40;;;;;;;;;;5089296;28;20056;-85
2022/10/22 08:05:39;;;;;;;6.55;4.00;;;;;;;;;;5091786;28;20028;-84
2022/10/22 08:08:05;;;;;;;6.10;3.63;;;;;;;;;;5090844;28;20032;-83
2022/10/22 08:10:31;;;;;;;7.38;4.30;;;;;;;;;;5087239;28;20486;-83
2022/10/22 08:12:57;;;;;;;7.13;4.35;;;;;;;;;;5089348;28;20020;-83
2022/10/22 08:15:24;;;;;;;6.90;4.28;;;;;;;;;;5089363;28;20027;-82
2022/10/22 08:17:50;;;;;;;7.15;4.13;;;;;;;;;;5091780;28;20015;-84
2022/10/22 08:20:15;;;;;;;7.40;3.53;;;;;;;;;;5088942;28;20034;-82
2022/10/22 08:22:41;;;;;;;7.88;4.55;;;;;;;;;;5090694;28;20044;-84
2022/10/22 08:25:07;;;;;;;5.15;3.80;;;;;;;;;;5086153;28;20067;-82
2022/10/22 08:27:32;;;;;;;6.07;4.32;;;;;;;;;;5090801;28;20024;-83
2022/10/22 08:29:57;;;;;;;5.72;3.63;;;;;;;;;;5088441;28;20032;-83
2022/10/22 08:32:23;;;;;;;7.10;3.90;;;;;;;;;;5090808;28;20023;-83
2022/10/22 08:34:49;;;;;;;9.35;4.30;;;;;;;;;;5087784;28;20466;-83
2022/10/22 08:37:15;;;;;;;6.65;3.40;;;;;;;;;;5089108;28;20026;-83
2022/10/22 08:39:41;;;;;;;11.90;5.60;;;;;;;;;;5088883;28;20032;-83
2022/10/22 08:42:36;;;;;;;5.45;4.10;;;;;;;;;;5088694;28;20115;-83
2022/10/22 08:45:10;;;;;;;7.05;4.57;;;;;;;;;;5087581;28;20035;-83
2022/10/22 08:47:38;;;;;;;5.70;4.22;;;;;;;;;;5090122;28;20496;-83
2022/10/22 08:50:08;;;;;;;6.03;4.53;;;;;;;;;;5089622;28;20035;-83
2022/10/22 08:52:35;;;;;;;5.75;4.10;;;;;;;;;;5090346;28;20085;-83
2022/10/22 08:55:02;;;;;;;7.05;4.97;;;;;;;;;;5090457;28;20028;-82
2022/10/22 08:58:19;;;;;;;9.75;4.82;;;;;;;;;;5087144;28;20490;-82
2022/10/22 09:01:08;;;;;;;7.90;4.50;;;;;;;;;;5044509;28;20400;-90
2022/10/22 09:03:42;;;;;;;8.48;4.28;;;;;;;;;;5088863;28;20078;-86
2022/10/22 09:06:23;;;;;;;8.23;4.47;;;;;;;;;;5087887;28;20054;-83
2022/10/22 09:08:49;;;;;;;7.50;5.28;;;;;;;;;;5085146;28;20056;-83
2022/10/22 09:11:26;;;;;;;6.15;4.20;;;;;;;;;;5091411;28;20067;-85
2022/10/22 09:13:53;;;;;;;7.65;4.53;;;;;;;;;;5089459;28;20016;-85
2022/10/22 09:16:43;;;;;;;8.73;5.32;;;;;;;;;;5092080;28;20024;-86
2022/10/22 09:19:14;;;;;;;9.43;5.50;;;;;;;;;;5092877;28;20028;-86
2022/10/22 09:21:52;;;;;;;14.20;4.78;;;;;;;;;;5094933;28;20044;-84
2022/10/22 09:24:35;;;;;;;9.10;4.18;;;;;;;;;;5095006;28;20475;-85
2022/10/22 09:27:01;;;;;;;8.40;5.13;;;;;;;;;;5093068;28;20042;-85
2022/10/22 09:29:32;;;;;;;6.72;3.83;;;;;;;;;;5094905;28;20089;-85
2022/10/22 09:31:57;;;;;;;12.18;5.18;;;;;;;;;;5092377;28;20406;-84
2022/10/22 09:34:23;;;;;;;7.28;4.72;;;;;;;;;;5094542;28;20027;-84
2022/10/22 09:36:58;;;;;;;8.40;4.68;;;;;;;;;;5093684;28;20383;-83
2022/10/22 09:39:45;;;;;;;11.35;5.53;;;;;;;;;;5091801;28;20434;-84
2022/10/22 09:42:15;;;;;;;7.30;4.55;;;;;;;;;;5092182;28;20028;-84
2022/10/22 09:44:41;;;;;;;6.78;4.32;;;;;;;;;;5093053;28;20035;-83
2022/10/22 09:47:28;;;;;;;8.00;5.05;;;;;;;;;;5090622;28;20144;-84
2022/10/22 09:50:13;;;;;;;12.40;5.18;;;;;;;;;;5093051;28;20026;-84
2022/10/22 09:52:39;;;;;;;15.90;6.75;;;;;;;;;;5090503;28;20027;-86
2022/10/22 09:55:16;;;;;;;7.53;5.03;;;;;;;;;;5090742;28;20034;-85
2022/10/22 09:57:41;;;;;;;10.65;5.35;;;;;;;;;;5092767;28;20028;-84
2022/10/22 10:00:09;;;;;;;6.82;4.35;;;;;;;;;;5093084;28;20110;-84
2022/10/22 10:02:41;;;;;;;6.03;4.25;;;;;;;;;;5090133;28;20785;-85
2022/10/22 10:05:07;;;;;;;5.68;3.42;;;;;;;;;;5095274;28;20027;-88
2022/10/22 10:07:34;;;;;;;7.18;4.80;;;;;;;;;;5092587;28;20024;-84
2022/10/22 10:10:00;;;;;;;9.55;4.57;;;;;;;;;;5091415;28;20063;-83
2022/10/22 10:12:42;;;;;;;11.48;5.03;;;;;;;;;;5082781;28;20020;-85
2022/10/22 10:15:32;;;;;;;9.90;5.68;;;;;;;;;;5088173;28;20024;-84
2022/10/22 10:18:09;;;;;;;8.38;5.20;;;;;;;;;;5090338;28;20105;-84
2022/10/22 10:20:53;;;;;;;10.95;5.57;;;;;;;;;;5092134;28;20016;-84
2022/10/22 10:23:24;;;;;;;7.75;4.40;;;;;;;;;;5093293;28;20039;-84
2022/10/22 10:26:00;;;;;;;7.20;4.45;;;;;;;;;;5090079;28;20488;-84
2022/10/22 10:28:32;;;;;;;9.48;5.35;;;;;;;;;;5080774;28;20028;-85
2022/10/22 10:31:18;;;;;;;6.97;4.32;;;;;;;;;;5122110;27;20028;-86
2022/10/22 10:33:47;;;;;;;7.50;4.75;;;;;;;;;;5091705;28;20032;-88
2022/10/22 10:36:34;;;;;;;11.55;5.28;;;;;;;;;;5091749;28;20035;-85
2022/10/22 10:39:11;;;;;;;6.82;4.38;;;;;;;;;;5092170;28;20027;-85
2022/10/22 10:41:43;;;;;;;6.00;4.28;;;;;;;;;;5092050;28;20123;-87
2022/10/22 10:44:28;;;;;;;7.85;4.97;;;;;;;;;;5093363;28;20468;-85
2022/10/22 10:47:21;;;;;;;6.93;4.72;;;;;;;;;;5092978;28;20024;-87
2022/10/22 10:49:53;;;;;;;9.10;4.95;;;;;;;;;;5089963;28;20135;-86
2022/10/22 10:52:38;;;;;;;7.72;4.80;;;;;;;;;;5090565;28;20077;-90
2022/10/22 10:55:14;;;;;;;9.57;4.65;;;;;;;;;;5092404;28;20027;-87
2022/10/22 10:57:58;;;;;;;9.10;4.50;;;;;;;;;;5088953;28;20080;-89
2022/10/22 11:00:24;;;;;;;9.27;4.47;;;;;;;;;;5090438;28;20093;-88
2022/10/22 11:03:01;;;;;;;5.97;3.58;;;;;;;;;;5093516;28;20468;-87
2022/10/22 11:05:33;;;;;;;11.40;4.50;;;;;;;;;;5090413;28;20024;-90
2022/10/22 11:08:02;;;;;;;9.80;5.53;;;;;;;;;;5091772;28;20020;-87
2022/10/22 11:10:34;;;;;;;7.40;4.20;;;;;;;;;;5092336;28;20107;-87
2022/10/22 11:13:30;;;;;;;8.15;4.70;;;;;;;;;;5092173;28;20016;-89
2022/10/22 11:16:16;;;;;;;6.55;4.00;;;;;;;;;;5067800;28;20437;-87
2022/10/22 11:18:57;;;;;;;7.43;4.10;;;;;;;;;;5089867;28;20097;-86
2022/10/22 11:21:28;;;;;;;6.88;4.65;;;;;;;;;;5091275;28;20048;-87
2022/10/22 11:24:34;;;;;;;7.90;4.60;;;;;;;;;;5091941;28;20035;-88
2022/10/22 11:27:20;;;;;;;7.32;4.15;;;;;;;;;;5089647;28;20119;-89
2022/10/22 11:29:52;;;;;;;7.47;4.03;;;;;;;;;;5090244;28;20116;-87
2022/10/22 11:32:20;;;;;;;4.15;3.05;;;;;;;;;;5092083;28;20095;-87
2022/10/22 11:34:53;;;;;;;6.53;3.88;;;;;;;;;;5088367;28;20482;-87
2022/10/22 11:37:20;;;;;;;6.38;3.50;;;;;;;;;;5091540;28;20112;-87
2022/10/22 11:39:58;;;;;;;6.47;3.58;;;;;;;;;;5089305;28;20032;-88
2022/10/22 11:42:45;;;;;;;6.45;3.55;;;;;;;;;;5090335;28;20024;-86
2022/10/22 11:45:13;;;;;;;6.97;3.92;;;;;;;;;;5091117;28;20043;-88
2022/10/22 11:48:09;;;;;;;12.85;3.63;;;;;;;;;;5091279;28;20081;-87
2022/10/22 11:50:51;;;;;;;4.70;3.30;;;;;;;;;;5090824;28;20513;-88
2022/10/22 11:53:25;;;;;;;5.50;3.20;;;;;;;;;;5092791;28;20102;-89
2022/10/22 11:55:52;;;;;;;4.97;3.42;;;;;;;;;;5090581;28;20027;-87
2022/10/22 11:58:31;;;;;;;6.38;3.85;;;;;;;;;;5089913;28;20426;-87
2022/10/22 12:01:06;;;;;;;5.43;3.78;;;;;;;;;;5089291;28;20518;-86
2022/10/22 12:03:31;;;;;;;5.55;3.28;;;;;;;;;;5087064;28;20107;-85
2022/10/22 12:06:12;;;;;;;4.85;2.75;;;;;;;;;;5089224;28;20177;-86
2022/10/22 12:08:50;;;;;;;6.88;3.05;;;;;;;;;;5091520;28;20032;-87
2022/10/22 12:11:23;;;;;;;6.90;3.78;;;;;;;;;;5089155;28;20028;-83
2022/10/22 12:14:01;;;;;;;5.53;3.38;;;;;;;;;;5088904;28;20031;-82
2022/10/22 12:16:32;;;;;;;6.80;3.17;;;;;;;;;;5088932;28;20043;-82
2022/10/22 12:19:34;;;;;;;7.38;3.63;;;;;;;;;;5088290;28;20027;-83
2022/10/22 12:22:09;;;;;;;5.53;3.30;;;;;;;;;;5056643;28;20491;-83
2022/10/22 12:24:43;;;;;;;5.60;3.42;;;;;;;;;;5090974;28;20020;-82
2022/10/22 12:27:26;;;;;;;5.07;3.03;;;;;;;;;;5090917;28;20035;-81
2022/10/22 12:29:57;;;;;;;6.82;3.92;;;;;;;;;;5090861;28;20085;-82
2022/10/22 12:32:35;;;;;;;5.88;3.58;;;;;;;;;;5088233;28;20028;-83
2022/10/22 12:35:06;;;;;;;4.78;3.03;;;;;;;;;;5091255;28;20360;-83
2022/10/22 12:37:35;;;;;;;4.32;2.92;;;;;;;;;;5090233;28;20024;-82
2022/10/22 12:40:01;;;;;;;7.40;4.43;;;;;;;;;;5090850;28;20472;-83
2022/10/22 12:42:27;;;;;;;5.22;3.38;;;;;;;;;;5091503;28;20032;-81
2022/10/22 12:44:55;;;;;;;5.55;3.25;;;;;;;;;;5090750;28;20028;-82
2022/10/22 12:47:21;;;;;;;4.07;2.67;;;;;;;;;;5090278;28;20114;-82
2022/10/22 12:49:48;;;;;;;5.40;2.92;;;;;;;;;;5090796;28;20551;-82
2022/10/22 12:52:20;;;;;;;11.60;3.75;;;;;;;;;;5089387;28;20032;-82
2022/10/22 12:54:51;;;;;;;5.57;3.03;;;;;;;;;;5089687;28;20024;-82
2022/10/22 12:57:18;;;;;;;6.07;3.30;;;;;;;;;;5091211;28;20024;-82
2022/10/22 12:59:49;;;;;;;6.70;3.72;;;;;;;;;;5093468;28;20435;-81
2022/10/22 13:02:23;;;;;;;8.05;3.47;;;;;;;;;;5088343;28;20024;-82
2022/10/22 13:05:14;;;;;;;5.88;3.40;;;;;;;;;;5083780;28;20103;-82
2022/10/22 13:07:52;;;;;;;7.55;3.60;;;;;;;;;;5089302;28;20024;-82
2022/10/22 13:10:23;;;;;;;5.23;3.43;;;;;;;;;;5094343;28;20031;-83
2022/10/22 13:12:50;;;;;;;5.57;3.40;;;;;;;;;;5092787;28;20028;-80
2022/10/22 13:15:40;;;;;;;4.40;2.53;;;;;;;;;;5089561;28;20107;-82
2022/10/22 13:18:16;;;;;;;7.22;3.70;;;;;;;;;;5091852;28;20044;-81
2022/10/22 13:20:52;;;;;;;3.42;2.47;;;;;;;;;;5092509;28;20416;-82
2022/10/22 13:23:21;;;;;;;4.32;2.90;;;;;;;;;;5092416;28;20081;-81
2022/10/22 13:25:57;;;;;;;4.30;2.75;;;;;;;;;;5094880;28;20669;-87
2022/10/22 13:28:25;;;;;;;5.75;3.60;;;;;;;;;;5095706;28;20104;-89
2022/10/22 13:31:22;;;;;;;8.68;4.88;;;;;;;;;;5095847;28;20027;-87
2022/10/22 13:33:54;;;;;;;5.18;3.13;;;;;;;;;;5124244;27;20036;-89
2022/10/22 13:36:20;;;;;;;8.35;3.55;;;;;;;;;;5094661;28;20032;-88
2022/10/22 13:38:46;;;;;;;4.63;3.42;;;;;;;;;;5091663;28;20034;-87
2022/10/22 13:41:25;;;;;;;5.43;3.00;;;;;;;;;;5093678;28;20094;-86
2022/10/22 13:43:51;;;;;;;4.03;2.67;;;;;;;;;;5091307;28;20046;-87
2022/10/22 13:46:17;;;;;;;4.22;2.42;;;;;;;;;;5094041;28;20024;-88
2022/10/22 13:48:45;;;;;;;3.80;2.10;;;;;;;;;;5088027;28;20043;-85
2022/10/22 13:51:15;;;;;;;4.95;2.65;;;;;;;;;;5090837;28;20034;-88
2022/10/22 13:53:41;;;;;;;6.20;2.92;;;;;;;;;;5090153;28;20056;-87
2022/10/22 13:56:14;;;;;;;3.92;2.42;;;;;;;;;;5092349;28;20031;-87
2022/10/22 13:58:40;;;;;;;3.78;2.13;;;;;;;;;;5093502;28;20032;-87
2022/10/22 14:01:17;;;;;;;3.85;2.30;;;;;;;;;;5093385;28;20090;-87
2022/10/22 14:03:42;;;;;;;4.47;2.50;;;;;;;;;;5123378;27;20067;-87
2022/10/22 14:06:14;;;;;;;5.30;2.47;;;;;;;;;;5092620;28;20035;-87
2022/10/22 14:08:40;;;;;;;2.83;2.05;;;;;;;;;;5090867;28;20032;-88
2022/10/22 14:11:07;;;;;;;9.85;2.75;;;;;;;;;;5088164;28;20060;-87
2022/10/22 14:13:32;;;;;;;3.60;1.92;;;;;;;;;;5091637;28;20550;-87
2022/10/22 14:16:02;;;;;;;2.58;1.92;;;;;;;;;;5088760;28;20104;-87
2022/10/22 14:18:30;;;;;;;8.23;2.65;;;;;;;;;;5090985;28;20114;-87
2022/10/22 14:21:03;;;;;;;3.80;2.38;;;;;;;;;;5086441;28;20040;-85
2022/10/22 14:23:31;;;;;;;5.35;3.47;;;;;;;;;;5090142;28;20052;-87
2022/10/22 14:25:58;;;;;;;4.68;2.25;;;;;;;;;;5092377;28;20653;-87
2022/10/22 14:28:23;;;;;;;8.13;3.10;;;;;;;;;;5093725;28;20035;-85
2022/10/22 14:30:50;;;;;;;7.82;4.15;;;;;;;;;;5093224;28;20024;-86
2022/10/22 14:33:25;;;;;;;7.03;2.38;;;;;;;;;;5091783;28;20028;-86
2022/10/22 14:35:50;;;;;;;4.13;2.30;;;;;;;;;;5093157;28;20035;-85
2022/10/22 14:38:16;;;;;;;4.07;2.75;;;;;;;;;;5090530;28;20024;-88
2022/10/22 14:40:43;;;;;;;8.35;3.78;;;;;;;;;;5090096;28;20150;-86
2022/10/22 14:43:15;;;;;;;5.03;2.65;;;;;;;;;;5091527;28;20039;-88
2022/10/22 14:45:40;;;;;;;3.53;1.92;;;;;;;;;;5093319;28;20103;-87
2022/10/22 14:48:07;;;;;;;6.45;2.28;;;;;;;;;;5093356;28;20146;-89
2022/10/22 14:50:32;;;;;;;3.53;2.40;;;;;;;;;;5089477;28;20070;-86
2022/10/22 14:52:58;;;;;;;4.07;2.20;;;;;;;;;;5093218;28;20458;-86
2022/10/22 14:55:25;;;;;;;3.75;1.98;;;;;;;;;;5093512;28;20108;-87
2022/10/22 14:57:51;;;;;;;5.90;2.63;;;;;;;;;;5090131;28;20019;-85
2022/10/22 15:00:18;;;;;;;3.90;2.13;;;;;;;;;;5091469;28;20027;-86
2022/10/22 15:02:44;;;;;;;2.25;1.80;;;;;;;;;;5090527;28;20369;-84